Time;durP1;ratioP1;P1;durP2;ratioP2;P2;SDS_P1;SDS_P2;PMS_P1;PMS_P2;Temp;Humidity;BMP_temperature;BMP_pressure;BME280_temperature;BME280_humidity;BME280_pressure;Samples;Min_cycle;Max_cycle;Signal;HPM_P1;HPM_P2
2023/01/05 00:01:13;;;;;;;2.23;1.30;;;11.00;99.90;;;;;;5113580;28;20553;-56
2023/01/05 00:03:40;;;;;;;1.43;1.17;;;11.00;99.90;;;;;;5111367;28;20495;-56
2023/01/05 00:06:11;;;;;;;1.50;1.40;;;11.00;99.90;;;;;;5112696;28;20445;-54
2023/01/05 00:08:38;;;;;;;2.53;1.20;;;10.90;99.90;;;;;;5113278;28;20489;-54
2023/01/05 00:22:30;;;;;;;1.30;1.20;;;11.00;99.90;;;;;;5117093;28;20402;-56
2023/01/05 00:24:58;;;;;;;2.37;1.30;;;11.00;99.90;;;;;;5117165;28;20427;-55
2023/01/05 00:27:27;;;;;;;1.50;1.40;;;11.00;99.90;;;;;;5114476;28;20492;-55
2023/01/05 00:29:54;;;;;;;1.40;1.30;;;11.00;99.90;;;;;;5117101;28;20472;-56
2023/01/05 00:32:22;;;;;;;1.30;1.20;;;11.00;99.90;;;;;;5117252;28;20775;-55
2023/01/05 00:34:53;;;;;;;1.30;1.20;;;11.10;99.90;;;;;;5114436;28;20944;-56
2023/01/05 00:37:20;;;;;;;1.20;1.10;;;11.10;99.90;;;;;;5116505;28;20797;-56
2023/01/05 00:39:47;;;;;;;1.50;1.40;;;11.10;99.90;;;;;;5117063;28;20527;-55
2023/01/05 00:42:14;;;;;;;1.40;1.30;;;11.10;99.90;;;;;;5114441;28;20951;-55
2023/01/05 00:44:43;;;;;;;1.30;1.20;;;11.20;99.90;;;;;;5116511;28;20462;-54
2023/01/05 00:47:10;;;;;;;1.53;1.30;;;11.20;99.90;;;;;;5116376;28;20915;-55
2023/01/05 00:49:37;;;;;;;1.10;1.00;;;11.20;99.90;;;;;;5114563;28;20442;-55
2023/01/05 00:52:05;;;;;;;2.03;1.37;;;11.20;99.90;;;;;;5116556;28;20461;-55
2023/01/05 00:54:32;;;;;;;1.30;1.20;;;11.20;99.90;;;;;;5116245;28;20491;-55
2023/01/05 00:57:00;;;;;;;1.40;1.20;;;11.20;99.90;;;;;;5114079;28;20956;-55
2023/01/05 00:59:27;;;;;;;1.40;1.20;;;11.20;99.90;;;;;;5116082;28;20446;-55
2023/01/05 01:01:56;;;;;;;1.10;1.00;;;11.20;99.90;;;;;;5116242;28;20482;-55
2023/01/05 01:04:23;;;;;;;1.37;1.27;;;11.20;99.90;;;;;;5113903;28;20978;-56
2023/01/05 01:06:50;;;;;;;1.40;1.30;;;11.20;99.90;;;;;;5116056;28;20443;-55
2023/01/05 01:09:18;;;;;;;1.27;1.10;;;11.20;99.90;;;;;;5115406;28;20482;-55
2023/01/05 01:11:45;;;;;;;1.10;1.00;;;11.20;99.90;;;;;;5114340;28;20438;-55
2023/01/05 01:14:12;;;;;;;1.20;1.10;;;11.20;99.90;;;;;;5116472;28;20447;-55
2023/01/05 01:16:41;;;;;;;1.40;1.30;;;11.20;99.90;;;;;;5116219;28;20446;-55
2023/01/05 01:19:14;;;;;;;1.10;1.00;;;11.20;99.90;;;;;;5113984;28;20925;-55
2023/01/05 01:21:41;;;;;;;1.30;1.20;;;11.20;99.90;;;;;;5116022;28;20805;-55
2023/01/05 01:24:08;;;;;;;1.20;1.10;;;11.20;99.90;;;;;;5115351;28;20429;-55
2023/01/05 01:26:35;;;;;;;1.10;1.00;;;11.20;99.90;;;;;;5112514;28;20811;-55
2023/01/05 01:29:02;;;;;;;1.30;1.20;;;11.20;99.90;;;;;;5115733;28;20474;-56
2023/01/05 01:31:30;;;;;;;1.13;1.03;;;11.20;99.90;;;;;;5115538;28;20889;-55
2023/01/05 01:33:57;;;;;;;1.93;1.00;;;11.20;99.90;;;;;;5113013;28;20454;-55
2023/01/05 01:36:25;;;;;;;1.27;1.17;;;11.20;99.90;;;;;;5115056;28;20945;-55
2023/01/05 01:38:52;;;;;;;1.13;1.03;;;11.20;99.90;;;;;;5115017;28;20450;-55
2023/01/05 01:41:20;;;;;;;1.20;1.10;;;11.20;99.90;;;;;;5113749;28;20469;-55
2023/01/05 01:43:49;;;;;;;2.10;1.20;;;11.20;99.90;;;;;;5115727;28;20816;-54
2023/01/05 01:46:17;;;;;;;1.20;1.10;;;11.20;99.90;;;;;;5115670;28;20427;-54
2023/01/05 01:48:48;;;;;;;1.10;1.00;;;11.20;99.90;;;;;;5113167;28;20569;-57
2023/01/05 01:51:20;;;;;;;1.67;1.10;;;11.20;99.90;;;;;;5115406;28;20466;-56
2023/01/05 01:53:52;;;;;;;1.10;1.00;;;11.30;99.90;;;;;;5114918;28;20427;-57
2023/01/05 01:56:23;;;;;;;1.20;1.00;;;11.30;99.90;;;;;;5112987;28;20431;-57
2023/01/05 01:58:51;;;;;;;1.97;1.00;;;11.30;99.90;;;;;;5115026;28;20443;-57
2023/01/05 02:01:23;;;;;;;1.10;1.00;;;11.30;99.90;;;;;;5113969;28;20997;-56
2023/01/05 02:03:50;;;;;;;1.10;1.00;;;11.20;99.90;;;;;;5112596;28;20419;-56
2023/01/05 02:06:18;;;;;;;1.10;1.00;;;11.20;99.90;;;;;;5115241;28;20469;-56
2023/01/05 02:08:45;;;;;;;1.20;1.10;;;11.20;99.90;;;;;;5114692;28;20992;-56
2023/01/05 02:11:29;;;;;;;1.50;1.00;;;11.20;99.90;;;;;;5112519;28;20912;-56
2023/01/05 02:14:11;;;;;;;1.10;1.00;;;11.20;99.90;;;;;;5114493;28;20434;-56
2023/01/05 02:16:51;;;;;;;1.10;1.00;;;11.20;99.90;;;;;;5112626;28;20974;-56
2023/01/05 02:20:01;;;;;;;1.00;0.90;;;11.20;99.90;;;;;;5114787;28;20510;-56
2023/01/05 02:22:55;;;;;;;1.10;1.00;;;11.30;99.90;;;;;;5030444;28;20825;-56
2023/01/05 02:25:46;;;;;;;1.13;1.03;;;11.20;99.90;;;;;;5027758;28;20462;-56
2023/01/05 02:28:32;;;;;;;1.20;1.10;;;11.30;99.90;;;;;;5096931;28;20844;-57
2023/01/05 02:31:11;;;;;;;1.30;1.20;;;11.30;99.90;;;;;;5114521;28;20553;-56
2023/01/05 02:33:56;;;;;;;1.97;1.00;;;11.30;99.90;;;;;;5114206;28;20430;-57
2023/01/05 02:36:29;;;;;;;1.37;1.27;;;11.30;99.90;;;;;;5114366;28;20445;-56
2023/01/05 02:39:03;;;;;;;1.20;1.10;;;11.40;99.90;;;;;;5112992;28;21155;-56
2023/01/05 02:41:35;;;;;;;1.10;1.00;;;11.40;99.90;;;;;;5114588;28;20462;-56
2023/01/05 02:44:03;;;;;;;1.10;1.00;;;11.30;99.90;;;;;;5114405;28;20489;-56
2023/01/05 02:46:31;;;;;;;1.20;1.10;;;11.40;99.90;;;;;;5112532;28;20418;-57
2023/01/05 02:49:00;;;;;;;1.00;0.90;;;11.40;99.90;;;;;;5114330;28;20479;-56
2023/01/05 02:51:32;;;;;;;2.10;1.10;;;11.50;99.90;;;;;;5113785;28;20467;-56
2023/01/05 02:54:04;;;;;;;1.10;1.00;;;11.50;99.90;;;;;;5112614;28;20433;-56
2023/01/05 02:56:37;;;;;;;1.03;0.93;;;11.50;99.90;;;;;;5114146;28;20440;-56
2023/01/05 02:59:10;;;;;;;1.00;0.90;;;11.50;99.90;;;;;;5114170;28;20419;-56
2023/01/05 03:01:43;;;;;;;1.27;1.00;;;11.50;99.90;;;;;;5112213;28;20463;-56
2023/01/05 03:04:13;;;;;;;1.20;1.00;;;11.50;99.90;;;;;;5113228;28;20427;-56
2023/01/05 03:06:46;;;;;;;1.20;1.10;;;11.50;99.90;;;;;;5113924;28;20437;-56
2023/01/05 03:09:16;;;;;;;1.10;1.00;;;11.50;99.90;;;;;;5112073;28;20490;-56
2023/01/05 03:14:39;;;;;;;1.30;1.20;;;11.50;99.90;;;;;;5113913;28;20402;-56
2023/01/05 03:17:11;;;;;;;1.30;1.20;;;11.60;99.90;;;;;;5111836;28;20434;-56
2023/01/05 03:19:38;;;;;;;1.20;1.10;;;11.60;99.90;;;;;;5113657;28;20466;-56
2023/01/05 03:36:19;;;;;;;1.10;1.00;;;11.60;99.90;;;;;;5113138;28;20780;-56
2023/01/05 03:38:50;;;;;;;1.07;0.97;;;11.60;99.90;;;;;;5110790;28;20454;-56
2023/01/05 03:41:19;;;;;;;1.20;1.10;;;11.50;99.90;;;;;;5112745;28;20545;-56
2023/01/05 03:43:48;;;;;;;1.30;1.20;;;11.50;99.90;;;;;;5112723;28;21019;-56
2023/01/05 03:46:17;;;;;;;1.20;1.10;;;11.60;99.90;;;;;;5111105;28;20419;-57
2023/01/05 03:48:47;;;;;;;1.10;1.00;;;11.60;99.90;;;;;;5112748;28;20482;-56
2023/01/05 03:51:15;;;;;;;1.10;1.00;;;11.60;99.90;;;;;;5113181;28;20463;-56
2023/01/05 03:53:42;;;;;;;1.10;1.00;;;11.60;99.90;;;;;;5111282;28;20441;-56
2023/01/05 03:56:10;;;;;;;1.77;1.10;;;11.60;99.90;;;;;;5112948;28;20944;-56
2023/01/05 03:58:37;;;;;;;1.23;1.10;;;11.60;99.90;;;;;;5113142;28;20443;-56
2023/01/05 04:01:05;;;;;;;1.10;1.00;;;11.60;99.90;;;;;;5111168;28;20453;-56
2023/01/05 04:03:32;;;;;;;1.10;1.00;;;11.60;99.90;;;;;;5113089;28;20516;-56
2023/01/05 04:06:01;;;;;;;1.10;1.00;;;11.60;99.90;;;;;;5113064;28;20451;-56
2023/01/05 04:08:28;;;;;;;1.10;1.00;;;11.60;99.90;;;;;;5111076;28;20485;-56
2023/01/05 04:10:55;;;;;;;1.10;1.00;;;11.60;99.90;;;;;;5112201;28;20476;-56
2023/01/05 04:13:23;;;;;;;1.10;1.00;;;11.60;99.90;;;;;;5112254;28;20987;-57
2023/01/05 04:15:50;;;;;;;1.00;0.90;;;11.50;99.90;;;;;;5110690;28;20450;-56
2023/01/05 04:18:18;;;;;;;1.13;1.03;;;11.50;99.90;;;;;;5112617;28;20442;-56
2023/01/05 04:20:45;;;;;;;1.10;1.00;;;11.60;99.90;;;;;;5111950;28;20472;-56
2023/01/05 04:23:13;;;;;;;1.03;0.93;;;11.50;99.90;;;;;;5111026;28;20446;-56
2023/01/05 04:25:40;;;;;;;1.00;0.90;;;11.60;99.90;;;;;;5113005;28;20453;-56
2023/01/05 04:28:07;;;;;;;1.30;0.93;;;11.60;99.90;;;;;;5112927;28;20795;-57
2023/01/05 04:30:34;;;;;;;1.23;1.03;;;11.50;99.90;;;;;;5111049;28;20624;-56
2023/01/05 04:33:01;;;;;;;1.30;1.10;;;11.60;99.90;;;;;;5112847;28;20446;-56
2023/01/05 04:35:28;;;;;;;1.30;1.20;;;11.60;99.90;;;;;;5112759;28;20451;-58
2023/01/05 04:37:56;;;;;;;1.10;1.00;;;11.60;99.90;;;;;;5111118;28;20455;-56
2023/01/05 04:40:24;;;;;;;1.13;1.03;;;11.60;99.90;;;;;;5111328;28;20454;-56
2023/01/05 04:42:51;;;;;;;1.10;1.00;;;11.60;99.90;;;;;;5111868;28;20457;-56
2023/01/05 04:45:18;;;;;;;1.30;1.20;;;11.70;99.90;;;;;;5110692;28;20493;-57
2023/01/05 04:47:46;;;;;;;1.47;1.17;;;11.70;99.90;;;;;;5111785;28;20802;-57
2023/01/05 04:50:13;;;;;;;1.30;1.20;;;11.60;99.90;;;;;;5110996;28;20493;-57
2023/01/05 04:52:40;;;;;;;1.10;1.00;;;11.60;99.90;;;;;;5109640;28;20533;-56
2023/01/05 04:55:08;;;;;;;1.20;1.10;;;11.70;99.90;;;;;;5110923;28;20453;-58
2023/01/05 04:57:37;;;;;;;1.20;1.10;;;11.70;99.90;;;;;;5112022;28;20423;-55
2023/01/05 05:00:05;;;;;;;1.13;1.00;;;11.70;99.90;;;;;;5112024;28;20466;-57
2023/01/05 05:02:32;;;;;;;1.00;0.90;;;11.70;99.90;;;;;;5115718;28;20844;-56
2023/01/05 05:04:59;;;;;;;1.30;1.20;;;11.80;99.90;;;;;;5115673;28;20541;-56
2023/01/05 05:07:27;;;;;;;1.20;1.10;;;11.80;99.90;;;;;;5113881;28;20963;-56
2023/01/05 05:09:54;;;;;;;1.20;1.00;;;11.80;99.90;;;;;;5115411;28;20591;-56
2023/01/05 05:12:21;;;;;;;1.10;1.00;;;11.80;99.90;;;;;;5116001;28;20447;-56
2023/01/05 05:14:50;;;;;;;1.13;1.03;;;11.80;99.90;;;;;;5114075;28;20434;-56
2023/01/05 05:17:17;;;;;;;1.00;0.90;;;11.80;99.90;;;;;;5115942;28;20446;-56
2023/01/05 05:19:44;;;;;;;1.73;1.10;;;11.80;99.90;;;;;;5116030;28;20494;-56
2023/01/05 05:22:11;;;;;;;1.00;0.90;;;11.90;99.90;;;;;;5114009;28;20446;-56
2023/01/05 05:24:38;;;;;;;1.23;1.13;;;11.90;99.90;;;;;;5115855;28;20457;-56
2023/01/05 05:27:06;;;;;;;1.10;1.00;;;11.90;99.90;;;;;;5115890;28;20482;-56
2023/01/05 05:29:33;;;;;;;1.10;1.00;;;11.90;99.90;;;;;;5113043;28;20565;-55
2023/01/05 05:32:01;;;;;;;1.13;1.03;;;11.90;99.90;;;;;;5115635;28;20478;-55
2023/01/05 05:34:28;;;;;;;1.00;0.90;;;11.80;99.90;;;;;;5115954;28;20525;-59
2023/01/05 05:36:55;;;;;;;1.20;1.10;;;11.80;99.90;;;;;;5113518;28;20453;-55
2023/01/05 05:39:22;;;;;;;1.10;1.00;;;11.70;99.90;;;;;;5115069;28;20438;-55
2023/01/05 05:41:49;;;;;;;1.20;1.10;;;11.70;99.90;;;;;;5114855;28;20442;-55
2023/01/05 05:44:17;;;;;;;1.40;1.00;;;11.80;99.90;;;;;;5112092;28;20512;-55
2023/01/05 05:46:44;;;;;;;1.07;0.97;;;11.70;99.90;;;;;;5115799;28;20423;-55
2023/01/05 05:49:12;;;;;;;1.00;0.90;;;11.60;99.90;;;;;;5114778;28;20992;-55
2023/01/05 05:51:39;;;;;;;1.13;1.03;;;11.60;99.90;;;;;;5112927;28;20462;-54
2023/01/05 05:54:07;;;;;;;1.00;0.90;;;11.50;99.90;;;;;;5114900;28;20447;-54
2023/01/05 05:56:34;;;;;;;1.00;0.90;;;11.50;99.90;;;;;;5114828;28;20805;-54
2023/01/05 05:59:01;;;;;;;1.10;1.00;;;11.40;99.90;;;;;;5112675;28;20439;-54
2023/01/05 06:01:28;;;;;;;1.20;1.10;;;11.30;99.90;;;;;;5114429;28;20481;-54
2023/01/05 06:03:55;;;;;;;1.20;1.10;;;11.30;99.90;;;;;;5114969;28;20484;-54
2023/01/05 06:06:24;;;;;;;1.27;1.10;;;11.20;99.90;;;;;;5112972;28;20449;-55
2023/01/05 06:08:51;;;;;;;1.30;1.20;;;11.20;99.90;;;;;;5115221;28;20451;-55
2023/01/05 06:11:18;;;;;;;3.00;1.37;;;11.00;99.90;;;;;;5113963;28;20470;-54
2023/01/05 06:13:47;;;;;;;2.97;1.20;;;11.00;99.90;;;;;;5113225;28;20443;-55
2023/01/05 06:16:14;;;;;;;2.97;1.30;;;10.90;99.90;;;;;;5114923;28;20457;-54
2023/01/05 06:18:41;;;;;;;1.37;1.27;;;10.80;99.90;;;;;;5114329;28;21033;-54
2023/01/05 06:21:09;;;;;;;1.53;1.20;;;10.80;99.90;;;;;;5112681;28;20814;-54
2023/01/05 06:23:37;;;;;;;2.10;1.30;;;10.70;99.90;;;;;;5114767;28;20924;-55
2023/01/05 06:26:04;;;;;;;3.63;1.20;;;10.70;99.90;;;;;;5114380;28;20449;-54
2023/01/05 06:28:31;;;;;;;3.20;1.30;;;10.60;99.90;;;;;;5112844;28;20455;-55
2023/01/05 06:30:59;;;;;;;1.57;1.47;;;10.50;99.90;;;;;;5114491;28;20516;-55
2023/01/05 06:33:26;;;;;;;1.77;1.60;;;10.50;99.90;;;;;;5114037;28;20453;-54
2023/01/05 06:35:53;;;;;;;2.30;1.60;;;10.50;99.90;;;;;;5112574;28;20477;-55
2023/01/05 06:38:20;;;;;;;2.90;1.90;;;10.40;99.90;;;;;;5114188;28;20561;-55
2023/01/05 06:40:48;;;;;;;1.60;1.50;;;10.40;99.90;;;;;;5113323;28;20465;-55
2023/01/05 06:43:16;;;;;;;4.60;1.70;;;10.40;99.90;;;;;;5111901;28;20546;-55
2023/01/05 06:45:43;;;;;;;1.93;1.40;;;10.40;99.90;;;;;;5113854;28;20492;-55
2023/01/05 06:48:10;;;;;;;2.90;1.87;;;10.40;99.90;;;;;;5113845;28;20446;-56
2023/01/05 06:50:37;;;;;;;1.60;1.50;;;10.40;99.90;;;;;;5111845;28;21055;-56
2023/01/05 06:53:04;;;;;;;1.50;1.37;;;10.40;99.90;;;;;;5113740;28;20451;-55
2023/01/05 06:55:31;;;;;;;2.40;1.70;;;10.50;99.90;;;;;;5114004;28;20451;-56
2023/01/05 06:58:00;;;;;;;1.50;1.40;;;10.40;99.90;;;;;;5111688;28;20454;-56
2023/01/05 07:00:27;;;;;;;4.20;1.43;;;10.50;99.90;;;;;;5113364;28;20446;-56
2023/01/05 07:02:54;;;;;;;4.20;1.53;;;10.50;99.90;;;;;;5114248;28;20454;-56
2023/01/05 07:05:23;;;;;;;1.67;1.57;;;10.50;99.90;;;;;;5112202;28;20450;-54
2023/01/05 07:07:50;;;;;;;3.27;1.70;;;10.60;99.90;;;;;;5113284;28;20480;-55
2023/01/05 07:10:17;;;;;;;1.97;1.77;;;10.50;99.90;;;;;;5113237;28;20482;-55
2023/01/05 07:12:44;;;;;;;2.13;1.40;;;10.50;99.90;;;;;;5111211;28;20450;-55
2023/01/05 07:15:13;;;;;;;2.70;1.67;;;10.50;99.90;;;;;;5113511;28;20453;-55
2023/01/05 07:17:40;;;;;;;1.60;1.37;;;10.60;99.90;;;;;;5113684;28;20450;-56
2023/01/05 07:20:08;;;;;;;1.80;1.70;;;10.50;99.90;;;;;;5111363;28;20942;-56
2023/01/05 07:22:35;;;;;;;1.53;1.43;;;10.50;99.90;;;;;;5112625;28;20535;-56
2023/01/05 07:25:03;;;;;;;4.40;1.63;;;10.50;99.90;;;;;;5113035;28;20917;-56
2023/01/05 07:27:30;;;;;;;5.10;2.00;;;10.60;99.90;;;;;;5111767;28;20545;-55
2023/01/05 07:29:57;;;;;;;2.53;1.50;;;10.60;99.90;;;;;;5113343;28;20486;-56
2023/01/05 07:32:26;;;;;;;2.13;1.70;;;10.60;99.90;;;;;;5113519;28;20427;-56
2023/01/05 07:34:53;;;;;;;3.27;2.00;;;10.70;99.90;;;;;;5111331;28;20446;-57
2023/01/05 07:37:20;;;;;;;3.07;2.10;;;10.70;99.90;;;;;;5112807;28;20545;-56
2023/01/05 07:39:47;;;;;;;2.70;2.23;;;10.70;99.90;;;;;;5112587;28;20465;-56
2023/01/05 07:42:14;;;;;;;4.47;2.27;;;10.70;99.90;;;;;;5109409;28;20934;-57
2023/01/05 07:44:41;;;;;;;2.87;2.67;;;10.70;99.90;;;;;;5111115;28;20497;-57
2023/01/05 07:47:09;;;;;;;3.60;2.17;;;10.70;99.90;;;;;;5112468;28;20458;-56
2023/01/05 07:49:37;;;;;;;4.30;1.83;;;10.70;99.90;;;;;;5110786;28;20478;-56
2023/01/05 07:52:04;;;;;;;5.33;1.60;;;10.80;99.90;;;;;;5113444;28;20485;-57
2023/01/05 07:54:32;;;;;;;3.67;1.97;;;10.80;99.90;;;;;;5112841;28;20451;-56
2023/01/05 07:56:59;;;;;;;2.50;1.90;;;10.80;99.90;;;;;;5111139;28;20446;-56
2023/01/05 07:59:26;;;;;;;5.73;2.00;;;10.80;99.90;;;;;;5113189;28;20470;-56
2023/01/05 08:01:53;;;;;;;3.87;2.20;;;10.80;99.90;;;;;;5112871;28;20446;-56
2023/01/05 08:04:20;;;;;;;3.37;2.07;;;10.90;99.90;;;;;;5109965;28;20445;-56
2023/01/05 08:06:48;;;;;;;2.50;1.87;;;10.90;99.90;;;;;;5111052;28;20451;-57
2023/01/05 08:12:00;;;;;;;6.00;1.83;;;10.90;99.90;;;;;;5110474;28;20410;-56
2023/01/05 08:14:27;;;;;;;2.30;2.10;;;11.00;99.90;;;;;;5112712;28;20449;-56
2023/01/05 08:16:54;;;;;;;3.90;1.90;;;11.00;99.90;;;;;;5111923;28;20929;-56
2023/01/05 08:19:21;;;;;;;6.03;2.07;;;11.00;99.90;;;;;;5110271;28;20887;-56
2023/01/05 08:21:50;;;;;;;2.90;1.77;;;11.00;99.90;;;;;;5111587;28;21102;-56
2023/01/05 08:24:17;;;;;;;3.00;1.90;;;11.00;99.90;;;;;;5112281;28;20447;-56
2023/01/05 08:26:44;;;;;;;3.40;1.87;;;11.00;99.90;;;;;;5110468;28;20991;-56
2023/01/05 08:29:12;;;;;;;3.43;1.90;;;11.00;99.90;;;;;;5112832;28;20445;-55
2023/01/05 08:31:40;;;;;;;4.70;2.60;;;11.00;99.90;;;;;;5112479;28;20484;-55
2023/01/05 08:34:07;;;;;;;5.50;2.43;;;11.00;99.90;;;;;;5110675;28;20451;-56
2023/01/05 08:36:35;;;;;;;3.27;1.90;;;11.00;99.90;;;;;;5116473;28;20446;-56
2023/01/05 08:39:04;;;;;;;4.03;2.00;;;11.10;99.90;;;;;;5116457;28;20461;-55
2023/01/05 08:41:34;;;;;;;4.00;2.00;;;11.10;99.90;;;;;;5114169;28;20462;-54
2023/01/05 08:44:03;;;;;;;3.70;1.80;;;11.10;99.90;;;;;;5115626;28;20529;-55
2023/01/05 08:46:32;;;;;;;7.20;2.50;;;11.10;99.90;;;;;;5116102;28;20814;-54
2023/01/05 08:49:01;;;;;;;3.90;2.20;;;11.20;99.90;;;;;;5113918;28;21053;-55
2023/01/05 08:51:30;;;;;;;3.73;1.73;;;11.20;99.90;;;;;;5116005;28;20478;-55
2023/01/05 08:53:58;;;;;;;2.37;1.97;;;11.20;99.90;;;;;;5116140;28;20442;-55
2023/01/05 08:56:27;;;;;;;4.40;2.43;;;11.10;99.90;;;;;;5113987;28;20450;-54
2023/01/05 08:58:56;;;;;;;7.73;3.50;;;11.20;99.90;;;;;;5115709;28;20534;-54
2023/01/05 09:01:23;;;;;;;4.63;1.93;;;11.20;99.90;;;;;;5115283;28;20474;-54
2023/01/05 09:03:50;;;;;;;7.70;2.40;;;11.20;99.90;;;;;;5113681;28;20579;-54
2023/01/05 09:06:18;;;;;;;2.63;1.90;;;11.20;99.90;;;;;;5115911;28;20446;-54
2023/01/05 09:08:46;;;;;;;8.23;2.60;;;11.20;99.90;;;;;;5115613;28;20458;-54
2023/01/05 09:11:15;;;;;;;2.97;2.20;;;11.20;99.90;;;;;;5113559;28;20574;-54
2023/01/05 09:13:47;;;;;;;6.73;2.73;;;11.20;99.90;;;;;;5115905;28;20537;-54
2023/01/05 09:16:16;;;;;;;5.63;2.90;;;11.30;99.90;;;;;;5116123;28;20496;-55
2023/01/05 09:18:43;;;;;;;3.90;2.67;;;11.20;99.90;;;;;;5113894;28;21037;-55
2023/01/05 09:21:10;;;;;;;11.83;2.43;;;11.20;99.90;;;;;;5114663;28;20472;-54
2023/01/05 09:23:38;;;;;;;12.30;3.10;;;11.30;99.90;;;;;;5115759;28;20540;-54
2023/01/05 09:26:06;;;;;;;14.20;2.80;;;11.30;99.90;;;;;;5113417;28;20446;-55
2023/01/05 09:28:35;;;;;;;5.40;2.87;;;11.30;99.90;;;;;;5115542;28;20427;-55
2023/01/05 09:31:08;;;;;;;10.60;3.27;;;11.30;99.90;;;;;;5115125;28;20605;-55
2023/01/05 09:33:36;;;;;;;5.80;2.83;;;11.30;99.90;;;;;;5113134;28;20439;-55
2023/01/05 09:36:04;;;;;;;5.23;2.40;;;11.40;99.90;;;;;;5114961;28;20453;-55
2023/01/05 09:38:31;;;;;;;8.70;2.77;;;11.40;99.90;;;;;;5105364;28;20476;-55
2023/01/05 09:41:04;;;;;;;7.90;3.17;;;11.40;99.90;;;;;;5105572;28;20499;-55
2023/01/05 09:43:36;;;;;;;6.40;2.87;;;11.50;99.90;;;;;;5114372;28;20477;-55
2023/01/05 09:46:06;;;;;;;8.90;2.80;;;11.50;99.90;;;;;;5101915;28;20883;-55
2023/01/05 09:48:40;;;;;;;14.23;3.10;;;11.40;99.90;;;;;;5110250;28;20454;-55
2023/01/05 09:51:09;;;;;;;4.90;2.93;;;11.40;99.90;;;;;;5114744;28;20482;-55
2023/01/05 09:53:37;;;;;;;6.43;3.60;;;11.50;99.90;;;;;;5111366;28;20458;-55
2023/01/05 09:56:05;;;;;;;11.13;2.97;;;11.60;99.90;;;;;;5112800;28;20443;-55
2023/01/05 09:58:39;;;;;;;7.20;2.57;;;11.60;99.90;;;;;;5113610;28;20466;-55
2023/01/05 10:01:11;;;;;;;7.43;3.00;;;11.50;99.90;;;;;;5110985;28;20570;-55
2023/01/05 10:03:44;;;;;;;10.30;2.87;;;11.50;99.90;;;;;;5113135;28;20492;-55
2023/01/05 10:06:14;;;;;;;12.60;3.53;;;11.50;99.90;;;;;;5115039;28;20429;-55
2023/01/05 10:08:44;;;;;;;9.67;4.53;;;11.40;99.90;;;;;;5096931;28;20577;-56
2023/01/05 10:14:04;;;;;;;16.60;4.57;;;11.50;99.90;;;;;;5112308;28;20572;-55
2023/01/05 10:16:33;;;;;;;6.20;3.70;;;11.60;99.90;;;;;;5114599;28;20461;-55
2023/01/05 10:19:01;;;;;;;6.20;2.63;;;11.70;99.90;;;;;;5112345;28;20486;-55
2023/01/05 10:21:48;;;;;;;9.30;2.70;;;11.60;99.90;;;;;;5113406;28;20468;-55
2023/01/05 10:24:26;;;;;;;12.87;4.77;;;11.50;99.90;;;;;;5112951;28;20449;-55
2023/01/05 10:27:00;;;;;;;8.87;2.97;;;11.60;99.90;;;;;;5112521;28;20535;-55
2023/01/05 10:29:33;;;;;;;6.43;3.10;;;11.70;99.90;;;;;;5110526;28;20544;-56
2023/01/05 10:32:11;;;;;;;7.83;4.10;;;11.70;99.90;;;;;;5097213;28;20478;-55
2023/01/05 10:34:54;;;;;;;10.33;3.43;;;11.70;99.90;;;;;;5112892;28;20427;-55
2023/01/05 10:37:48;;;;;;;8.83;3.27;;;11.60;99.90;;;;;;5114327;28;20485;-55
2023/01/05 10:40:27;;;;;;;9.73;3.67;;;11.60;99.90;;;;;;5110285;28;20481;-56
2023/01/05 10:43:15;;;;;;;7.33;2.57;;;11.60;99.90;;;;;;5113417;28;20439;-55
2023/01/05 10:45:42;;;;;;;9.30;3.13;;;11.70;99.90;;;;;;5110324;28;20486;-55
2023/01/05 10:48:14;;;;;;;10.60;3.03;;;11.80;99.90;;;;;;5103684;28;20458;-56
2023/01/05 10:50:45;;;;;;;9.47;2.87;;;11.80;99.90;;;;;;5109850;28;20574;-56
2023/01/05 10:53:14;;;;;;;10.00;3.00;;;11.80;99.90;;;;;;5094909;28;20527;-55
2023/01/05 10:55:50;;;;;;;9.87;3.20;;;11.90;99.90;;;;;;5099462;28;20450;-55
2023/01/05 10:58:24;;;;;;;11.17;3.00;;;11.80;99.90;;;;;;5111399;28;20464;-55
2023/01/05 11:00:55;;;;;;;6.60;2.87;;;11.80;99.90;;;;;;5113937;28;20474;-54
2023/01/05 11:03:33;;;;;;;13.13;3.87;;;11.90;99.90;;;;;;5111619;28;20545;-56
2023/01/05 11:06:02;;;;;;;10.10;3.30;;;12.00;99.90;;;;;;5113875;28;20462;-55
2023/01/05 11:08:31;;;;;;;9.77;4.07;;;11.80;99.90;;;;;;5112578;28;20462;-55
2023/01/05 11:11:00;;;;;;;15.80;4.53;;;11.80;99.90;;;;;;5111187;28;20478;-55
2023/01/05 11:13:35;;;;;;;7.53;2.90;;;11.80;99.90;;;;;;5113764;28;20949;-55
2023/01/05 11:16:08;;;;;;;7.40;3.13;;;11.90;99.90;;;;;;5113727;28;20600;-55
2023/01/05 11:18:41;;;;;;;6.20;2.70;;;11.80;99.90;;;;;;5110357;28;20463;-55
2023/01/05 11:21:12;;;;;;;9.50;3.07;;;11.90;99.90;;;;;;5109660;28;20454;-55
2023/01/05 11:23:41;;;;;;;9.07;3.47;;;12.00;99.90;;;;;;5113620;28;20435;-55
2023/01/05 11:26:24;;;;;;;7.17;3.00;;;11.90;99.90;;;;;;5109657;28;20458;-55
2023/01/05 11:29:10;;;;;;;7.87;3.07;;;11.80;99.90;;;;;;5112198;28;20885;-55
2023/01/05 11:31:41;;;;;;;8.07;2.67;;;11.90;99.90;;;;;;5111011;28;20482;-56
2023/01/05 11:34:37;;;;;;;8.07;2.87;;;11.80;99.90;;;;;;5112179;28;20431;-55
2023/01/05 11:37:23;;;;;;;12.83;2.90;;;11.80;99.90;;;;;;5092119;28;20481;-56
2023/01/05 11:39:54;;;;;;;11.47;3.70;;;11.90;99.90;;;;;;5104163;28;20470;-55
2023/01/05 11:42:30;;;;;;;10.03;3.07;;;11.90;99.90;;;;;;5112655;28;20450;-55
2023/01/05 11:44:59;;;;;;;7.23;2.80;;;11.90;99.90;;;;;;5112597;28;20474;-56
2023/01/05 11:47:30;;;;;;;9.27;3.40;;;11.90;99.90;;;;;;5104114;28;20438;-55
2023/01/05 11:50:04;;;;;;;5.10;3.00;;;11.90;99.90;;;;;;5112224;28;20481;-55
2023/01/05 11:52:37;;;;;;;5.53;2.90;;;11.90;99.90;;;;;;5113449;28;20901;-56
2023/01/05 11:55:30;;;;;;;12.30;4.00;;;11.90;99.90;;;;;;5111054;28;20423;-55
2023/01/05 11:58:21;;;;;;;10.30;3.07;;;11.90;99.90;;;;;;5111337;28;20806;-56
2023/01/05 12:01:03;;;;;;;6.80;2.50;;;11.90;99.90;;;;;;5096105;28;20474;-56
2023/01/05 12:03:53;;;;;;;10.00;3.20;;;11.90;99.90;;;;;;5113050;28;20426;-56
2023/01/05 12:06:36;;;;;;;12.40;2.97;;;11.90;99.90;;;;;;5113173;28;20427;-55
2023/01/05 12:09:12;;;;;;;6.73;2.60;;;11.90;99.90;;;;;;5111240;28;20548;-56
2023/01/05 12:11:47;;;;;;;6.90;2.70;;;11.90;99.90;;;;;;5119631;28;20482;-55
2023/01/05 12:14:29;;;;;;;12.37;3.73;;;11.90;99.90;;;;;;5119669;28;20430;-55
2023/01/05 12:16:57;;;;;;;8.90;3.07;;;11.90;99.90;;;;;;5116805;28;20480;-56
2023/01/05 12:19:49;;;;;;;8.20;3.93;;;12.00;99.90;;;;;;5099289;28;20812;-55
2023/01/05 12:22:38;;;;;;;10.60;3.00;;;11.90;99.90;;;;;;5099063;28;20924;-55
2023/01/05 12:25:28;;;;;;;10.70;2.40;;;11.90;99.90;;;;;;5097376;28;20420;-56
2023/01/05 12:28:15;;;;;;;7.57;3.30;;;12.00;99.90;;;;;;5113738;28;20979;-55
2023/01/05 12:30:47;;;;;;;5.50;3.33;;;11.90;99.90;;;;;;5117404;28;20537;-55
2023/01/05 12:33:34;;;;;;;12.57;3.73;;;12.00;99.90;;;;;;5118528;28;20537;-55
2023/01/05 12:36:22;;;;;;;6.47;2.73;;;12.00;99.90;;;;;;5119643;28;20426;-55
2023/01/05 12:39:02;;;;;;;12.30;3.50;;;11.90;99.90;;;;;;5117491;28;20546;-55
2023/01/05 12:42:03;;;;;;;9.03;3.10;;;11.90;99.90;;;;;;5117724;28;20833;-55
2023/01/05 12:45:06;;;;;;;5.63;2.70;;;12.00;99.90;;;;;;5114316;28;20553;-56
2023/01/05 12:47:47;;;;;;;8.73;3.57;;;12.00;99.90;;;;;;5116804;28;20433;-55
2023/01/05 12:50:24;;;;;;;11.00;3.53;;;12.00;99.90;;;;;;5118393;28;21019;-55
2023/01/05 12:52:55;;;;;;;13.00;2.77;;;12.00;99.90;;;;;;5104917;28;20824;-56
2023/01/05 12:55:26;;;;;;;12.67;3.73;;;12.10;99.90;;;;;;5119149;28;20462;-55
2023/01/05 12:58:00;;;;;;;7.40;3.07;;;12.10;99.90;;;;;;5117921;28;20458;-55
2023/01/05 13:00:33;;;;;;;7.57;3.37;;;12.10;99.90;;;;;;5116426;28;20552;-55
2023/01/05 13:03:02;;;;;;;9.50;3.43;;;12.00;99.90;;;;;;5119343;28;20439;-55
2023/01/05 13:05:34;;;;;;;14.83;4.50;;;11.90;99.90;;;;;;5117862;28;20473;-55
2023/01/05 13:08:07;;;;;;;10.00;3.80;;;11.90;99.90;;;;;;5116698;28;20846;-55
2023/01/05 13:10:44;;;;;;;7.40;3.87;;;11.90;99.90;;;;;;5119125;28;20465;-55
2023/01/05 13:13:16;;;;;;;11.83;4.00;;;12.00;99.90;;;;;;5117713;28;20476;-56
2023/01/05 13:15:52;;;;;;;9.83;2.80;;;12.00;99.90;;;;;;5117137;28;20500;-56
2023/01/05 13:18:23;;;;;;;10.20;3.77;;;12.00;99.90;;;;;;5118192;28;20537;-56
2023/01/05 13:20:54;;;;;;;12.37;3.47;;;12.00;99.90;;;;;;5118004;28;20498;-56
2023/01/05 13:23:25;;;;;;;7.13;2.97;;;12.10;99.90;;;;;;5112480;28;20512;-55
2023/01/05 13:25:58;;;;;;;10.00;3.63;;;12.10;99.90;;;;;;5112889;28;20818;-55
2023/01/05 13:28:27;;;;;;;12.73;4.00;;;12.00;99.90;;;;;;5115894;28;20431;-56
2023/01/05 13:31:26;;;;;;;7.83;3.57;;;12.00;99.90;;;;;;5113299;28;20462;-56
2023/01/05 13:34:15;;;;;;;10.43;3.07;;;12.10;99.90;;;;;;5114657;28;20920;-55
2023/01/05 13:37:09;;;;;;;18.03;3.27;;;12.10;99.90;;;;;;5115328;28;20485;-55
2023/01/05 13:39:56;;;;;;;13.87;3.40;;;12.10;99.90;;;;;;5113576;28;20447;-55